Time;durP1;ratioP1;P1;durP2;ratioP2;P2;SDS_P1;SDS_P2;PMS_P1;PMS_P2;Temp;Humidity;BMP_temperature;BMP_pressure;BME280_temperature;BME280_humidity;BME280_pressure;Samples;Min_cycle;Max_cycle;Signal;HPM_P1;HPM_P2
2022/06/10 00:01:21;;;;;;;3.93;1.60;;;;;;;13.01;100.00;96844.44;5033996;28;106036;-62
2022/06/10 00:03:50;;;;;;;2.37;1.73;;;;;;;12.99;100.00;96843.91;5030942;28;104139;-62
2022/06/10 00:06:53;;;;;;;2.33;1.60;;;;;;;13.00;100.00;96838.31;5031689;27;102517;-62
2022/06/10 00:09:21;;;;;;;3.43;1.60;;;;;;;13.02;100.00;96838.06;5032091;27;101760;-62
2022/06/10 00:11:48;;;;;;;3.50;1.40;;;;;;;12.99;100.00;96838.56;5032347;28;102938;-62
2022/06/10 00:14:25;;;;;;;3.40;1.70;;;;;;;12.99;100.00;96835.88;5030045;28;105906;-62
2022/06/10 00:16:52;;;;;;;2.50;1.60;;;;;;;12.98;100.00;96829.72;5014059;28;102204;-62
2022/06/10 00:19:21;;;;;;;3.40;1.80;;;;;;;13.04;100.00;96835.94;5032212;28;102399;-62
2022/06/10 00:21:48;;;;;;;5.17;1.70;;;;;;;13.04;100.00;96828.72;5031482;28;102748;-62
2022/06/10 00:24:19;;;;;;;2.40;1.63;;;;;;;13.05;100.00;96829.53;5035555;28;101725;-62
2022/06/10 00:26:46;;;;;;;2.80;1.60;;;;;;;13.02;100.00;96838.06;5031692;27;102577;-62
2022/06/10 00:29:13;;;;;;;2.07;1.40;;;;;;;13.03;100.00;96837.00;5030634;28;101907;-62
2022/06/10 00:31:41;;;;;;;2.17;1.40;;;;;;;12.99;100.00;96835.88;5032015;28;102324;-62
2022/06/10 00:34:08;;;;;;;2.43;1.30;;;;;;;12.99;100.00;96839.38;5031195;27;102827;-62
2022/06/10 00:36:40;;;;;;;1.63;1.50;;;;;;;13.00;100.00;96834.81;5030343;28;102000;-62
2022/06/10 00:39:07;;;;;;;2.23;1.37;;;;;;;12.99;100.00;96843.91;5031823;28;104130;-62
2022/06/10 00:41:34;;;;;;;3.57;1.80;;;;;;;12.91;100.00;96852.34;5031244;27;103069;-62
2022/06/10 00:44:01;;;;;;;1.57;1.47;;;;;;;12.92;100.00;96845.94;5031738;28;101832;-62
2022/06/10 00:46:34;;;;;;;1.73;1.60;;;;;;;12.87;100.00;96851.25;5033279;28;105649;-62
2022/06/10 00:49:12;;;;;;;1.83;1.40;;;;;;;12.90;100.00;96848.03;5030550;28;102111;-62
2022/06/10 00:51:45;;;;;;;3.07;1.57;;;;;;;12.90;100.00;96854.19;5031614;27;102775;-62
2022/06/10 00:54:20;;;;;;;1.73;1.40;;;;;;;12.82;100.00;96859.19;5029563;28;105360;-62
2022/06/10 00:56:51;;;;;;;1.50;1.40;;;;;;;12.81;100.00;96855.72;5031962;28;101711;-62
2022/06/10 00:59:22;;;;;;;1.90;1.60;;;;;;;12.87;100.00;96856.56;5031328;28;102433;-62
2022/06/10 01:01:53;;;;;;;1.70;1.60;;;;;;;12.87;100.00;96853.91;5031081;27;103207;-62
2022/06/10 01:04:20;;;;;;;1.67;1.50;;;;;;;12.81;100.00;96860.25;5031740;28;101875;-62
2022/06/10 01:06:49;;;;;;;3.20;2.20;;;;;;;12.83;100.00;96858.13;5031169;28;102407;-62
2022/06/10 01:09:17;;;;;;;1.60;1.50;;;;;;;12.88;100.00;96856.34;5032887;28;105397;-62
2022/06/10 01:12:07;;;;;;;2.17;1.63;;;;;;;12.85;100.00;96861.34;5031396;28;102530;-62
2022/06/10 01:14:55;;;;;;;2.43;1.70;;;;;;;12.85;100.00;96853.34;5030769;28;102667;-62
2022/06/10 01:17:37;;;;;;;2.00;1.90;;;;;;;12.81;100.00;96855.72;5029886;28;101888;-62
2022/06/10 01:20:28;;;;;;;2.07;1.77;;;;;;;12.85;100.00;96859.50;5031258;28;102456;-62
2022/06/10 01:23:36;;;;;;;2.07;1.70;;;;;;;12.85;100.00;96864.00;5030001;28;102798;-62
2022/06/10 01:29:56;;;;;;;2.33;1.77;;;;;;;12.92;100.00;96870.75;5012654;27;102850;-62
2022/06/10 01:32:33;;;;;;;1.67;1.50;;;;;;;12.98;100.00;96874.31;5030850;27;103266;-63
2022/06/10 01:35:13;;;;;;;3.40;1.77;;;;;;;13.01;100.00;96873.81;5031179;28;102915;-62
2022/06/10 01:37:45;;;;;;;1.50;1.40;;;;;;;13.03;100.00;96874.38;5029365;28;105445;-62
2022/06/10 01:40:21;;;;;;;2.50;1.50;;;;;;;13.02;100.00;96875.44;5029407;28;101933;-62
2022/06/10 01:42:56;;;;;;;1.70;1.60;;;;;;;13.01;100.00;96876.47;5031163;28;101707;-62
2022/06/10 01:45:32;;;;;;;3.53;1.83;;;;;;;12.98;100.00;96872.44;5028857;28;105542;-62
2022/06/10 01:48:22;;;;;;;3.63;1.80;;;;;;;13.03;100.00;96874.38;5031026;28;101783;-62
2022/06/10 01:50:56;;;;;;;2.80;1.93;;;;;;;13.05;100.00;96873.06;5030894;27;102495;-62
2022/06/10 01:53:29;;;;;;;5.33;2.40;;;;;;;13.04;100.00;96875.97;5029966;27;102632;-62
2022/06/10 01:56:04;;;;;;;4.60;2.20;;;;;;;13.09;100.00;96876.03;5034373;28;101772;-62
2022/06/10 01:58:38;;;;;;;4.90;2.20;;;;;;;13.09;100.00;96879.47;5029963;28;102547;-63
2022/06/10 02:01:10;;;;;;;5.40;2.37;;;;;;;13.02;100.00;96884.25;5030827;27;101657;-62
2022/06/10 02:03:43;;;;;;;3.47;1.80;;;;;;;13.03;100.00;96880.50;5030753;27;102278;-63
2022/06/10 02:06:33;;;;;;;4.53;2.10;;;;;;;13.09;100.00;96892.06;5029934;28;103214;-62
2022/06/10 02:09:05;;;;;;;3.40;1.80;;;;;;;13.08;100.00;96893.91;5029186;28;101921;-62
2022/06/10 02:11:35;;;;;;;4.20;1.80;;;;;;;13.10;100.00;96896.31;5029238;28;105483;-62
2022/06/10 02:14:10;;;;;;;4.17;1.80;;;;;;;13.11;100.00;96897.94;5029749;27;102572;-62
2022/06/10 02:16:44;;;;;;;2.87;1.60;;;;;;;13.14;100.00;96892.88;5030475;28;101736;-62
2022/06/10 02:19:23;;;;;;;2.53;1.40;;;;;;;13.15;100.00;96907.06;5033464;28;102936;-62
2022/06/10 02:21:54;;;;;;;2.40;1.40;;;;;;;13.14;100.00;96897.44;5030455;27;101772;-62
2022/06/10 02:24:48;;;;;;;1.60;1.30;;;;;;;13.12;100.00;96907.53;5030741;27;102240;-62
2022/06/10 02:27:17;;;;;;;1.20;1.10;;;;;;;13.07;100.00;96907.50;5029628;28;102545;-62
2022/06/10 02:29:52;;;;;;;1.30;1.20;;;;;;;13.10;100.00;96912.34;5030164;27;101849;-62
2022/06/10 02:32:19;;;;;;;1.33;1.23;;;;;;;13.12;100.00;96915.56;5030977;27;102438;-62
2022/06/10 02:35:10;;;;;;;1.40;1.30;;;;;;;13.15;100.00;96913.22;5031514;28;105980;-62
2022/06/10 02:37:43;;;;;;;1.20;1.13;;;;;;;13.15;100.00;96907.06;5033973;28;101722;-62
2022/06/10 02:40:18;;;;;;;1.80;1.70;;;;;;;13.16;100.00;96919.34;5034000;28;102599;-62
2022/06/10 02:42:54;;;;;;;2.00;1.20;;;;;;;13.15;100.00;96913.22;5036682;28;102639;-62
2022/06/10 02:45:30;;;;;;;1.37;1.20;;;;;;;13.15;100.00;96915.06;5033852;28;102408;-62
2022/06/10 02:48:07;;;;;;;1.33;1.03;;;;;;;13.15;100.00;96917.72;5031911;28;105222;-62
2022/06/10 02:50:35;;;;;;;1.40;1.30;;;;;;;13.18;100.00;96909.19;5032286;28;101855;-62
2022/06/10 02:53:05;;;;;;;1.60;1.30;;;;;;;13.14;100.00;96916.13;5031843;28;105178;-62
2022/06/10 02:55:38;;;;;;;1.50;1.40;;;;;;;13.07;100.00;96919.00;5031393;28;104180;-62
2022/06/10 03:01:16;;;;;;;3.17;1.70;;;;;;;12.95;100.00;96918.31;5033676;27;102606;-62
2022/06/10 03:04:16;;;;;;;2.20;1.50;;;;;;;12.90;100.00;96928.13;5031329;28;106163;-62
2022/06/10 03:07:09;;;;;;;1.83;1.40;;;;;;;12.89;100.00;96926.53;5027508;28;101910;-62
2022/06/10 03:09:49;;;;;;;2.90;1.37;;;;;;;12.87;100.00;96929.44;5029663;28;106713;-63
2022/06/10 03:12:25;;;;;;;5.20;1.50;;;;;;;12.96;100.00;96935.16;5033420;28;101699;-62
2022/06/10 03:15:14;;;;;;;1.83;1.50;;;;;;;12.99;100.00;96924.81;5032955;27;102564;-62
2022/06/10 03:17:46;;;;;;;1.60;1.50;;;;;;;13.00;100.00;96934.41;5031106;28;105345;-62
2022/06/10 03:20:21;;;;;;;1.60;1.50;;;;;;;12.95;100.00;96941.53;5033152;28;101820;-62
2022/06/10 03:23:08;;;;;;;3.10;1.67;;;;;;;12.89;100.00;96940.69;5033334;27;102262;-62
2022/06/10 03:25:42;;;;;;;1.60;1.40;;;;;;;12.98;100.00;96938.41;5030961;28;103911;-62
2022/06/10 03:28:13;;;;;;;4.40;1.47;;;;;;;12.97;100.00;96944.81;5031740;28;101909;-62
2022/06/10 03:30:49;;;;;;;3.07;1.70;;;;;;;12.91;100.00;96943.91;5034513;28;106752;-62
2022/06/10 03:33:23;;;;;;;1.80;1.70;;;;;;;12.87;100.00;96950.78;5031463;28;101829;-62
2022/06/10 03:36:04;;;;;;;1.43;1.33;;;;;;;12.85;100.00;96946.75;5032857;28;103101;-62
2022/06/10 03:38:34;;;;;;;1.73;1.37;;;;;;;12.87;100.00;96955.34;5032322;28;102843;-62
2022/06/10 03:41:03;;;;;;;2.00;1.70;;;;;;;12.87;100.00;96950.00;5033087;27;101735;-62
2022/06/10 03:43:36;;;;;;;1.30;1.20;;;;;;;12.84;100.00;96953.16;5032488;27;104129;-62
2022/06/10 03:46:08;;;;;;;1.80;1.70;;;;;;;12.83;100.00;96954.22;5030159;28;105903;-62
2022/06/10 03:48:39;;;;;;;5.13;1.53;;;;;;;12.85;100.00;96958.25;5031349;28;101968;-62
2022/06/10 03:51:09;;;;;;;1.83;1.50;;;;;;;12.84;100.00;96945.16;5035538;28;102523;-62
2022/06/10 03:53:38;;;;;;;2.30;1.50;;;;;;;12.94;100.00;96956.75;5032295;28;101852;-62
2022/06/10 03:56:05;;;;;;;1.60;1.50;;;;;;;12.91;100.00;96957.25;5030983;28;105767;-62
2022/06/10 03:58:32;;;;;;;1.60;1.47;;;;;;;12.94;100.00;96961.28;5031475;28;102644;-62
2022/06/10 04:01:00;;;;;;;2.20;1.80;;;;;;;12.97;100.00;96966.16;5032605;27;101817;-62
2022/06/10 04:03:27;;;;;;;1.73;1.30;;;;;;;12.96;100.00;96969.88;5031137;28;105134;-62
2022/06/10 04:06:00;;;;;;;1.97;1.70;;;;;;;13.04;100.00;96980.13;5030352;28;105710;-62
2022/06/10 04:08:27;;;;;;;2.03;1.50;;;;;;;13.02;100.00;96979.56;5031086;28;101813;-62
2022/06/10 04:10:56;;;;;;;2.60;1.50;;;;;;;12.98;100.00;96973.91;5030892;28;105181;-62
2022/06/10 04:13:23;;;;;;;1.83;1.73;;;;;;;13.05;100.00;96979.03;5034876;28;104175;-62
2022/06/10 04:16:14;;;;;;;1.83;1.73;;;;;;;13.11;100.00;96978.03;5032208;28;102401;-62
2022/06/10 04:18:49;;;;;;;1.70;1.60;;;;;;;13.03;100.00;96983.84;5031981;28;103204;-62
2022/06/10 04:21:16;;;;;;;1.90;1.80;;;;;;;13.11;100.00;96986.06;5030690;28;102130;-62
2022/06/10 04:23:43;;;;;;;2.10;1.90;;;;;;;13.02;100.00;96984.91;5032092;27;102416;-62
2022/06/10 04:26:13;;;;;;;2.43;1.63;;;;;;;13.09;100.00;96988.97;5030010;28;105377;-62
2022/06/10 04:28:40;;;;;;;2.33;1.70;;;;;;;13.12;100.00;96991.16;5032384;28;101674;-62
2022/06/10 04:31:07;;;;;;;2.90;1.90;;;;;;;13.14;100.00;96996.25;5032057;28;102364;-62
2022/06/10 04:33:35;;;;;;;1.77;1.50;;;;;;;13.06;100.00;96996.69;5031255;28;102649;-62
2022/06/10 04:36:20;;;;;;;2.73;1.80;;;;;;;13.03;100.00;96995.31;5033885;28;101915;-62
2022/06/10 04:38:48;;;;;;;3.03;2.00;;;;;;;13.08;100.00;96999.91;5030022;28;105910;-62
2022/06/10 04:41:17;;;;;;;2.03;1.80;;;;;;;13.11;100.00;97004.75;5031747;28;101841;-62
2022/06/10 04:43:44;;;;;;;2.70;1.90;;;;;;;13.15;100.00;96997.84;5031664;28;104010;-62
2022/06/10 04:49:45;;;;;;;1.60;1.50;;;;;;;13.23;100.00;97000.88;5031936;27;101842;-62
2022/06/10 04:52:12;;;;;;;1.80;1.70;;;;;;;13.35;100.00;97008.75;5030077;28;105186;-62
2022/06/10 04:58:03;;;;;;;1.50;1.40;;;;;;;13.31;100.00;97005.75;5031774;27;101760;-62
2022/06/10 05:00:34;;;;;;;1.47;1.47;;;;;;;13.42;100.00;97001.31;5033949;28;102367;-62
2022/06/10 05:03:02;;;;;;;2.17;1.53;;;;;;;13.43;100.00;97002.94;5031476;28;101993;-62
2022/06/10 05:05:45;;;;;;;1.53;1.33;;;;;;;13.40;100.00;97011.47;5031345;27;101734;-62
2022/06/10 05:08:14;;;;;;;1.70;1.60;;;;;;;13.54;100.00;97004.63;5029467;28;106116;-62
2022/06/10 05:10:41;;;;;;;2.30;1.90;;;;;;;13.55;100.00;97016.94;5029970;28;101930;-62
2022/06/10 05:13:10;;;;;;;3.10;1.63;;;;;;;13.55;100.00;97011.59;5029991;28;105091;-62
2022/06/10 05:15:39;;;;;;;1.80;1.50;;;;;;;13.59;100.00;97018.06;5030695;28;102641;-62
2022/06/10 05:19:00;;;;;;;2.87;1.43;;;;;;;13.58;100.00;97016.44;5029979;28;101798;-62
2022/06/10 05:21:27;;;;;;;3.87;1.43;;;;;;;13.53;100.00;97017.19;5029838;28;105733;-62
2022/06/10 05:23:54;;;;;;;1.50;1.40;;;;;;;13.62;100.00;97018.34;5032579;28;105597;-62
2022/06/10 05:26:29;;;;;;;1.50;1.23;;;;;;;13.69;100.00;97018.94;5029904;28;105556;-62
2022/06/10 05:28:58;;;;;;;1.90;1.60;;;;;;;13.75;100.00;97019.78;5030612;28;103018;-62
2022/06/10 05:31:25;;;;;;;1.53;1.43;;;;;;;13.82;100.00;97023.06;5029589;28;102009;-62
2022/06/10 05:36:42;;;;;;;2.13;1.60;;;;;;;14.05;100.00;97020.03;5030536;27;103046;-62
2022/06/10 05:39:10;;;;;;;1.90;1.57;;;;;;;14.04;100.00;97023.75;5031125;28;101941;-62
2022/06/10 05:44:25;;;;;;;1.60;1.50;;;;;;;13.96;100.00;97027.72;5028812;28;104171;-62
2022/06/10 05:46:53;;;;;;;2.57;1.40;;;;;;;14.02;100.00;97028.56;5034588;28;101972;-62
2022/06/10 05:49:40;;;;;;;3.80;1.97;;;;;;;14.13;100.00;97030.25;5030089;28;104218;-62
2022/06/10 05:52:10;;;;;;;3.00;1.80;;;;;;;14.12;100.00;97034.00;5030655;27;101717;-62
2022/06/10 05:55:07;;;;;;;2.30;1.53;;;;;;;14.12;100.00;97034.00;5030689;27;102596;-61
2022/06/10 05:57:34;;;;;;;4.10;1.60;;;;;;;14.18;100.00;97038.31;5030230;28;102839;-65
2022/06/10 06:00:06;;;;;;;3.73;1.80;;;;;;;14.05;100.00;97022.69;5030117;28;102717;-62
2022/06/10 06:02:34;;;;;;;3.20;1.60;;;;;;;14.13;100.00;97019.56;5029281;28;104836;-61
2022/06/10 06:05:24;;;;;;;2.43;1.40;;;;;;;14.23;100.00;97019.66;5028339;28;103780;-62
2022/06/10 06:07:52;;;;;;;2.57;1.53;;;;;;;14.35;100.00;97021.09;5032071;28;101893;-65
2022/06/10 06:10:23;;;;;;;2.70;1.70;;;;;;;14.35;100.00;97022.94;5028578;28;106053;-64
2022/06/10 06:12:50;;;;;;;2.63;1.90;;;;;;;14.45;100.00;97033.72;5029170;28;101828;-64
2022/06/10 06:15:41;;;;;;;3.57;1.70;;;;;;;14.45;100.00;97034.50;5028952;28;105121;-64
2022/06/10 06:18:15;;;;;;;2.47;1.70;;;;;;;14.56;100.00;97038.06;5030121;28;102799;-64
2022/06/10 06:20:42;;;;;;;3.00;1.50;;;;;;;14.65;100.00;97036.50;5030626;28;101802;-64
2022/06/10 06:23:09;;;;;;;2.30;1.60;;;;;;;14.68;100.00;97038.66;5030565;28;102680;-64
2022/06/10 06:25:37;;;;;;;2.10;1.60;;;;;;;14.69;100.00;97037.59;5029713;28;102654;-64
2022/06/10 06:28:05;;;;;;;2.70;1.57;;;;;;;14.70;100.00;97047.22;5028932;28;101917;-63
2022/06/10 06:30:35;;;;;;;1.77;1.23;;;;;;;14.78;100.00;97052.88;5033217;28;102464;-63
2022/06/10 06:33:07;;;;;;;1.60;1.50;;;;;;;14.76;100.00;97048.84;5030162;28;102283;-73
2022/06/10 06:36:06;;;;;;;2.23;1.70;;;;;;;14.56;100.00;97051.44;5028464;28;105162;-64
2022/06/10 06:38:33;;;;;;;2.40;1.63;;;;;;;14.70;100.00;97057.94;5029631;28;102619;-64
2022/06/10 06:41:00;;;;;;;3.90;1.57;;;;;;;14.59;100.00;97053.59;5028504;28;101948;-64
2022/06/10 06:43:27;;;;;;;4.13;1.70;;;;;;;14.37;100.00;97063.63;5028511;28;105289;-64
2022/06/10 06:45:59;;;;;;;2.47;1.63;;;;;;;14.38;100.00;97054.56;5029280;28;102506;-64
2022/06/10 06:48:38;;;;;;;3.70;1.87;;;;;;;14.47;100.00;97053.00;5030147;28;101722;-64
2022/06/10 06:51:06;;;;;;;1.57;1.47;;;;;;;14.48;100.00;97060.75;5028257;28;105386;-64
2022/06/10 06:53:34;;;;;;;3.73;1.63;;;;;;;14.56;100.00;97062.16;5032518;27;102562;-64
2022/06/10 06:56:02;;;;;;;1.87;1.47;;;;;;;14.60;100.00;97064.03;5029727;28;102355;-64
2022/06/10 06:58:29;;;;;;;2.27;1.80;;;;;;;14.75;100.00;97068.66;5028783;28;103029;-64
2022/06/10 07:00:57;;;;;;;4.80;1.87;;;;;;;14.82;100.00;97067.38;5028407;28;102009;-64
2022/06/10 07:03:24;;;;;;;3.50;1.40;;;;;;;14.93;100.00;97065.56;5029635;27;102520;-64
2022/06/10 07:05:55;;;;;;;2.53;1.50;;;;;;;14.88;100.00;97070.91;5028936;28;103224;-64
2022/06/10 07:08:30;;;;;;;2.60;1.73;;;;;;;14.87;100.00;97069.28;5029886;28;101717;-64
2022/06/10 07:10:58;;;;;;;1.77;1.40;;;;;;;14.86;100.00;97073.00;5029794;28;102372;-64
2022/06/10 07:13:26;;;;;;;4.40;1.67;;;;;;;14.84;100.00;97075.97;5027504;28;105490;-64
2022/06/10 07:16:11;;;;;;;3.57;1.53;;;;;;;14.91;100.00;97086.44;5032933;27;101827;-64
2022/06/10 07:18:43;;;;;;;4.13;1.70;;;;;;;14.92;100.00;97077.31;5029057;27;102613;-64
2022/06/10 07:21:12;;;;;;;1.60;1.47;;;;;;;14.92;100.00;97071.97;5030965;28;101852;-64
2022/06/10 07:23:39;;;;;;;2.50;1.57;;;;;;;14.92;100.00;97082.69;5032801;28;102570;-64
2022/06/10 07:26:07;;;;;;;2.73;1.50;;;;;;;14.95;100.00;97079.50;5030838;28;105832;-64
2022/06/10 07:28:36;;;;;;;1.53;1.43;;;;;;;15.11;100.00;97081.19;5031640;28;101889;-76
2022/06/10 07:31:03;;;;;;;1.67;1.57;;;;;;;15.19;100.00;97077.97;5065523;27;105806;-63
2022/06/10 07:33:31;;;;;;;4.13;1.50;;;;;;;15.22;100.00;97072.13;5030380;28;105648;-63
2022/06/10 07:36:06;;;;;;;3.27;1.60;;;;;;;15.16;100.00;97083.88;5032419;28;101921;-63
2022/06/10 07:38:35;;;;;;;1.90;1.50;;;;;;;15.28;100.00;97077.22;5035728;27;102309;-63
2022/06/10 07:44:03;;;;;;;1.67;1.50;;;;;;;15.43;100.00;97081.88;5028070;28;102498;-63
2022/06/10 07:46:33;;;;;;;2.17;1.50;;;;;;;15.61;100.00;97076.00;5030805;28;106288;-63
2022/06/10 07:49:49;;;;;;;1.73;1.53;;;;;;;15.76;100.00;97076.81;5031139;28;102099;-63
2022/06/10 07:52:17;;;;;;;2.50;1.60;;;;;;;15.83;100.00;97082.75;5031090;28;105915;-63
2022/06/10 07:55:08;;;;;;;1.60;1.50;;;;;;;15.55;100.00;97087.78;5031697;28;102566;-63
2022/06/10 07:57:36;;;;;;;3.43;1.60;;;;;;;15.79;100.00;97073.63;5032419;28;101789;-63
2022/06/10 08:00:04;;;;;;;1.87;1.43;;;;;;;15.77;100.00;97075.78;5032106;28;102325;-63
2022/06/10 08:02:40;;;;;;;2.70;1.80;;;;;;;15.81;100.00;97082.19;5031752;27;101767;-63
2022/06/10 08:05:16;;;;;;;2.03;1.60;;;;;;;15.78;100.00;97076.56;5031856;28;102330;-63
2022/06/10 08:07:44;;;;;;;3.40;1.90;;;;;;;15.97;100.00;97080.34;5030166;28;106390;-63
2022/06/10 08:10:20;;;;;;;2.23;1.60;;;;;;;16.04;100.00;97081.72;5032192;28;101831;-63
2022/06/10 08:12:47;;;;;;;1.63;1.40;;;;;;;15.84;100.00;97087.03;5032098;28;104004;-61
2022/06/10 08:15:21;;;;;;;1.67;1.50;;;;;;;15.71;100.00;97082.22;5031504;27;103106;-61
2022/06/10 08:17:52;;;;;;;2.57;1.80;;;;;;;15.58;100.00;97079.22;5030679;28;102029;-63
2022/06/10 08:20:22;;;;;;;3.40;1.60;;;;;;;15.58;100.00;97084.59;5032139;28;102547;-63
2022/06/10 08:22:48;;;;;;;3.33;1.90;;;;;;;15.63;100.00;97080.03;5033314;28;106275;-63
2022/06/10 08:25:35;;;;;;;2.80;2.07;;;;;;;15.49;100.00;97091.53;5030475;28;105529;-64
2022/06/10 08:28:02;;;;;;;1.63;1.53;;;;;;;15.51;100.00;97082.16;5029946;28;104026;-63
2022/06/10 08:30:30;;;;;;;2.63;1.73;;;;;;;15.41;100.00;97086.66;5031512;27;101745;-63
2022/06/10 08:32:57;;;;;;;2.33;1.70;;;;;;;15.50;100.00;97085.91;5031810;28;102375;-63
2022/06/10 08:35:32;;;;;;;3.50;1.47;;;;;;;15.51;100.00;97086.69;5029541;28;105332;-63
2022/06/10 08:37:59;;;;;;;2.00;1.80;;;;;;;15.78;100.00;97090.78;5030267;28;103576;-63
2022/06/10 08:40:33;;;;;;;2.67;1.73;;;;;;;15.74;100.00;97097.75;5031339;28;102601;-63
2022/06/10 08:43:09;;;;;;;2.67;1.97;;;;;;;15.63;100.00;97106.03;5031076;28;103021;-63
2022/06/10 08:45:51;;;;;;;1.93;1.73;;;;;;;15.69;100.00;97096.94;5033724;28;101948;-63
2022/06/10 08:48:58;;;;;;;2.40;1.80;;;;;;;15.84;100.00;97096.94;5031179;28;102569;-63
2022/06/10 08:51:32;;;;;;;3.17;2.00;;;;;;;15.77;100.00;97101.78;5029877;28;101893;-63
2022/06/10 08:54:13;;;;;;;1.93;1.70;;;;;;;15.81;100.00;97097.50;5031564;27;102854;-63
2022/06/10 08:56:43;;;;;;;1.70;1.60;;;;;;;15.79;100.00;97099.63;5030914;28;102656;-63
2022/06/10 08:59:23;;;;;;;1.67;1.57;;;;;;;15.81;100.00;97102.88;5031247;27;101792;-63
2022/06/10 09:02:00;;;;;;;2.50;2.00;;;;;;;15.73;100.00;97098.00;5031737;28;102446;-64
2022/06/10 09:04:52;;;;;;;3.67;1.80;;;;;;;15.90;100.00;97099.38;5031012;28;102579;-63
2022/06/10 09:07:26;;;;;;;2.70;1.77;;;;;;;15.98;100.00;97101.53;5029887;28;101884;-63
2022/06/10 09:09:55;;;;;;;2.70;1.60;;;;;;;16.17;100.00;97101.81;5032963;28;105243;-63
2022/06/10 09:12:29;;;;;;;1.97;1.73;;;;;;;16.21;100.00;97098.34;5031192;28;101893;-63
2022/06/10 09:15:03;;;;;;;2.70;1.70;;;;;;;16.46;100.00;97111.00;5031466;28;102589;-63
2022/06/10 09:17:38;;;;;;;2.80;1.70;;;;;;;16.74;100.00;97108.50;5030780;28;102617;-63
2022/06/10 09:20:10;;;;;;;4.10;1.87;;;;;;;17.00;100.00;97112.75;5031369;27;101668;-63
2022/06/10 09:22:43;;;;;;;4.53;1.80;;;;;;;17.18;100.00;97119.44;5030003;28;103460;-63
2022/06/10 09:25:27;;;;;;;3.17;2.37;;;;;;;17.36;100.00;97116.13;5030747;28;102581;-63
2022/06/10 09:27:56;;;;;;;2.93;1.70;;;;;;;17.52;100.00;97115.03;5029764;28;101942;-63
2022/06/10 09:30:35;;;;;;;2.30;1.53;;;;;;;17.33;100.00;97114.78;5029785;28;106737;-63
2022/06/10 09:33:10;;;;;;;1.90;1.40;;;;;;;17.54;100.00;97110.19;5032437;28;106543;-63
2022/06/10 09:35:51;;;;;;;2.37;1.50;;;;;;;17.27;100.00;97113.22;5030966;28;102559;-63
2022/06/10 09:38:22;;;;;;;4.00;1.80;;;;;;;17.41;100.00;97108.06;5028908;28;106002;-63
2022/06/10 09:40:56;;;;;;;2.53;1.50;;;;;;;17.42;100.00;97109.69;5031118;28;101679;-63
2022/06/10 09:43:45;;;;;;;1.90;1.47;;;;;;;17.36;100.00;97106.19;5030303;28;102329;-63
2022/06/10 09:46:48;;;;;;;2.17;1.40;;;;;;;17.85;100.00;97115.13;5030513;28;102664;-63
2022/06/10 09:49:51;;;;;;;3.00;1.57;;;;;;;17.79;100.00;97110.03;5028524;28;102118;-63
2022/06/10 09:52:25;;;;;;;1.53;1.40;;;;;;;17.93;100.00;97109.13;5029405;28;103738;-63
2022/06/10 09:55:27;;;;;;;2.30;1.47;;;;;;;18.74;100.00;97109.34;5030231;28;102851;-63
2022/06/10 09:58:22;;;;;;;1.83;1.40;;;;;;;18.73;100.00;97108.53;5000718;27;101808;-63
2022/06/10 10:00:56;;;;;;;2.17;1.40;;;;;;;19.26;100.00;97103.94;5023044;27;105227;-63
2022/06/10 10:03:42;;;;;;;2.17;1.40;;;;;;;19.19;100.00;97098.06;5030662;28;101754;-63
2022/06/10 10:06:26;;;;;;;1.70;1.57;;;;;;;18.95;100.00;97099.94;5030219;28;102042;-63
2022/06/10 10:08:59;;;;;;;2.03;1.20;;;;;;;19.42;100.00;97097.28;5030312;28;102598;-63
2022/06/10 10:11:33;;;;;;;1.60;1.50;;;;;;;19.00;100.00;97089.91;5029269;28;101910;-63
2022/06/10 10:14:08;;;;;;;3.13;2.03;;;;;;;19.17;100.00;97086.75;5030738;28;102941;-63
2022/06/10 10:16:57;;;;;;;3.23;1.50;;;;;;;19.95;100.00;97080.59;5029871;28;102922;-63
2022/06/10 10:19:55;;;;;;;1.93;1.50;;;;;;;19.38;100.00;97088.97;5034127;28;101736;-63
2022/06/10 10:22:49;;;;;;;3.17;1.80;;;;;;;18.78;100.00;97086.09;5028518;28;105234;-63
2022/06/10 10:25:20;;;;;;;1.80;1.70;;;;;;;18.62;100.00;97087.34;5028628;28;101877;-63
2022/06/10 10:27:49;;;;;;;3.73;2.10;;;;;;;18.27;100.00;97091.13;5028943;28;105308;-63
2022/06/10 10:30:21;;;;;;;3.23;1.73;;;;;;;19.01;100.00;97093.44;5028259;28;105341;-63
2022/06/10 10:32:54;;;;;;;3.47;1.80;;;;;;;19.40;100.00;97094.84;5028849;28;101815;-63
2022/06/10 10:35:35;;;;;;;2.97;1.90;;;;;;;19.71;100.00;97095.25;5028842;28;104100;-63
2022/06/10 10:38:13;;;;;;;2.57;1.70;;;;;;;19.95;100.00;97090.63;5028090;28;105703;-63
2022/06/10 10:40:43;;;;;;;2.27;2.07;;;;;;;20.38;100.00;97094.84;5028811;28;101950;-63
2022/06/10 10:43:16;;;;;;;2.47;1.90;;;;;;;19.98;100.00;97090.81;5031546;28;106197;-63
2022/06/10 10:45:56;;;;;;;2.90;2.20;;;;;;;19.21;100.00;97090.47;5028855;28;102031;-63
2022/06/10 10:48:27;;;;;;;3.50;2.20;;;;;;;20.13;100.00;97087.13;5030291;28;102339;-63
2022/06/10 10:51:02;;;;;;;3.10;1.70;;;;;;;20.35;100.00;97077.31;5027989;28;103821;-63
2022/06/10 10:53:38;;;;;;;3.97;2.47;;;;;;;20.59;100.00;97086.06;5029201;28;101824;-63
2022/06/10 10:56:06;;;;;;;2.70;2.10;;;;;;;20.43;100.00;97082.03;5033771;28;102640;-63
2022/06/10 10:58:37;;;;;;;3.17;1.90;;;;;;;20.16;100.00;97091.94;5031151;28;105924;-63
2022/06/10 11:01:06;;;;;;;3.37;1.77;;;;;;;20.23;100.00;97087.78;5033334;28;101826;-63
2022/06/10 11:03:37;;;;;;;2.73;1.80;;;;;;;21.36;100.00;97082.47;5033429;28;102385;-63
2022/06/10 11:06:27;;;;;;;2.43;2.07;;;;;;;20.86;100.00;97077.22;5036416;27;102603;-64
2022/06/10 11:08:57;;;;;;;4.10;2.33;;;;;;;21.09;100.00;97068.94;5032208;28;105185;-63
2022/06/10 11:11:31;;;;;;;3.57;2.20;;;;;;;21.34;100.00;97070.34;5032538;28;102522;-63
2022/06/10 11:14:01;;;;;;;2.60;1.90;;;;;;;20.82;100.00;97065.41;5033429;28;101787;-63
2022/06/10 11:17:23;;;;;;;2.43;2.00;;;;;;;21.02;100.00;97067.75;5031859;28;105766;-63
2022/06/10 11:19:53;;;;;;;2.37;2.10;;;;;;;22.25;100.00;97072.66;5032776;28;103199;-63
2022/06/10 11:22:31;;;;;;;2.23;2.10;;;;;;;22.98;100.00;97072.97;5031921;28;101971;-63
2022/06/10 11:25:40;;;;;;;2.83;2.00;;;;;;;21.99;100.00;97072.47;5031726;28;105421;-64
2022/06/10 11:28:18;;;;;;;2.50;2.00;;;;;;;21.84;100.00;97069.28;5032721;28;102652;-63
2022/06/10 11:30:49;;;;;;;3.33;2.40;;;;;;;21.73;100.00;97070.63;5035075;28;101892;-63
2022/06/10 11:33:42;;;;;;;3.43;1.97;;;;;;;21.93;100.00;97067.47;5032463;28;102573;-63
2022/06/10 11:36:25;;;;;;;2.57;1.73;;;;;;;22.19;100.00;97061.13;5033012;27;101682;-63
2022/06/10 11:39:15;;;;;;;2.50;1.77;;;;;;;23.51;100.00;97054.66;5031411;28;105479;-63
2022/06/10 11:41:42;;;;;;;2.00;1.70;;;;;;;23.33;100.00;97058.47;5032295;28;102582;-63
2022/06/10 11:44:16;;;;;;;2.30;1.50;;;;;;;22.98;100.00;97059.41;5031332;28;101933;-63
2022/06/10 11:46:52;;;;;;;2.90;1.90;;;;;;;23.20;100.00;97048.50;5032713;28;103910;-63
2022/06/10 11:49:26;;;;;;;3.40;1.70;;;;;;;21.94;100.00;97055.53;5030769;28;105693;-63
2022/06/10 11:51:59;;;;;;;3.87;2.00;;;;;;;22.76;100.00;97048.63;5031253;28;101889;-63
2022/06/10 11:54:36;;;;;;;3.37;1.83;;;;;;;23.18;100.00;97029.84;5033917;28;104944;-63
2022/06/10 12:00:06;;;;;;;3.40;2.23;;;;;;;21.91;100.00;97037.19;5032235;27;102542;-63
2022/06/10 12:02:40;;;;;;;2.47;1.80;;;;;;;22.96;100.00;97029.09;5032119;27;102646;-63
2022/06/10 12:08:39;;;;;;;4.17;2.10;;;;;;;24.13;89.72;97026.94;5032778;27;102837;-63
2022/06/10 12:11:23;;;;;;;3.67;2.00;;;;;;;23.92;94.67;97022.50;5030521;28;105514;-63
2022/06/10 12:14:00;;;;;;;2.23;1.60;;;;;;;23.88;90.12;97013.34;5030897;28;101847;-63
2022/06/10 12:17:05;;;;;;;2.10;1.60;;;;;;;23.95;87.46;97016.41;5031046;28;105213;-63
2022/06/10 12:19:40;;;;;;;1.87;1.60;;;;;;;23.71;92.62;97000.53;5035285;28;102872;-63
2022/06/10 12:22:09;;;;;;;2.17;1.70;;;;;;;23.14;92.59;97007.13;5032380;27;102848;-64